Nearby METAR Reports

 

KRDU - Raleigh/Durham, North Carolina, USA
Distance from station: NNW 20mi, 33km
Updated: Wed, 26-Feb-2020 1:17am EST
Fog, Overcast
Fog, Overcast
 Wind from calm
Wind: Calm
Temperature: 55°F , 13°C
Dew Point: 54°F , 12°C
Humidity: 94%
Barometer: 29.84 inHg , 1010.5 hPa
Summary: Fog
Clouds: Overcast
Visibility: 1/4 mile , 0.4 km
Cloud details: Overcast 100 ft
2020/02/26 06:17 KRDU 260617Z 00000KT 1/4SM FG OVC001 13/12 A2984 RMK AO2 T01280122 RVRNO
KJNX - Smithfield Johns, North Carolina, USA
Distance from station: ESE 17mi, 28km
Updated: Wed, 26-Feb-2020 1:15am EST
Fog, Overcast
Fog, Overcast
 Wind from calm
Wind: Calm
Temperature: 52°F , 11°C
Dew Point: 52°F , 11°C
Humidity: 100%
Barometer: 29.85 inHg , 1010.8 hPa
Summary: Fog
Clouds: Overcast
Visibility: 1/4 mile , 0.4 km
Cloud details: Overcast 200 ft
2020/02/26 06:15 KJNX 260615Z AUTO 00000KT 1/4SM FG OVC002 11/11 A2985 RMK AO2
 
KLHZ - Louisburg/Frankl, North Carolina, USA
Distance from station: NE 33mi, 54km
Updated: Wed, 26-Feb-2020 1:15am EST
Fog, Overcast
Fog, Overcast
 Wind from SSW
Wind: SSW 3 mph , 6 km/h
Temperature: 54°F , 12°C
Dew Point: 54°F , 12°C
Humidity: 100%
Barometer: 29.87 inHg , 1011.5 hPa
Summary: Fog
Clouds: Overcast
Visibility: 1/2 mile , 0.8 km
Cloud details: Overcast 100 ft
2020/02/26 06:15 KLHZ 260615Z AUTO 20003KT 1/2SM FG OVC001 12/12 A2987 RMK AO2
KPOB - Pope Afb, North Carolina, USA
Distance from station: SSW 37mi, 59km
Updated: Wed, 26-Feb-2020 1:11am EST
Fog, Partly cloudy
Fog, Partly cloudy
 Wind from calm
Wind: Calm
Temperature: 54°F , 12°C
Dew Point: 54°F , 12°C
Humidity: 100%
Barometer: 29.84 inHg , 1010.5 hPa
Summary: Fog
Clouds: Partly cloudy
Visibility: 1/2 mile , 0.8 km
Cloud details: Partly cloudy 600 ft
2020/02/26 06:11 KPOB 260611Z AUTO 00000KT 1/2SM R23/3000V4000FT FG SCT006 12/12 A2984 RMK AO2 SLP107 $
 
KSCR - Siler City, North Carolina, USA
Distance from station: W 47mi, 75km
Updated: Wed, 26-Feb-2020 1:15am EST
Mist, Overcast
Mist, Overcast
 Wind from calm
Wind: Calm
Temperature: 52°F , 11°C
Dew Point: 52°F , 11°C
Humidity: 100%
Barometer: 29.85 inHg , 1010.8 hPa
Summary: Mist
Clouds: Overcast
Visibility: 1 mile , 2 km
Cloud details: Overcast 700 ft
2020/02/26 06:15 KSCR 260615Z AUTO 00000KT 1SM BR OVC007 11/11 A2985 RMK AO2 T01130113
KTDF - Roxboro Person, North Carolina, USA
Distance from station: NNW 49mi, 79km
Updated: Wed, 26-Feb-2020 1:15am EST
Fog, Overcast
Fog, Overcast
 Wind from calm
Wind: Calm
Temperature: 43°F , 6°C
Dew Point: 43°F , 6°C
Humidity: 100%
Barometer: 29.87 inHg , 1011.5 hPa
Summary: Fog
Clouds: Overcast
Visibility: 1/4 mile , 0.4 km
Cloud details: Overcast 200 ft
2020/02/26 06:15 KTDF 260615Z AUTO 00000KT 1/4SM FG OVC002 06/06 A2987 RMK AO2
 
KSOP - Southern Pines, North Carolina, USA
Distance from station: SW 50mi, 80km
Updated: Wed, 26-Feb-2020 12:56am EST
Fog, Mostly cloudy
Fog, Mostly cloudy
 Wind from calm
Wind: Calm
Temperature: 57°F , 14°C
Dew Point: 57°F , 14°C
Humidity: 100%
Barometer: 29.85 inHg , 1010.8 hPa
Summary: Fog
Clouds: Mostly cloudy
Visibility: 1/4 mile , 0.4 km
Cloud details: Mostly cloudy 200 ft
2020/02/26 05:56 KSOP 260556Z AUTO 00000KT 1/4SM FG BKN002 14/14 A2985 RMK AO2 SLP113 T01440139 10161 20128 56007
KHNZ - Henderson/Oxford, North Carolina, USA
Distance from station: N 52mi, 84km
Updated: Wed, 26-Feb-2020 1:15am EST
Fog, Overcast
Fog, Overcast
 Wind from calm
Wind: Calm
Temperature: 50°F , 10°C
Dew Point: 50°F , 10°C
Humidity: 100%
Barometer: 29.84 inHg , 1010.5 hPa
Summary: Fog
Clouds: Overcast
Visibility: 1/4 mile , 0.4 km
Cloud details: Overcast 100 ft
2020/02/26 06:15 KHNZ 260615Z AUTO 00000KT 1/4SM FG OVC001 10/10 A2984 RMK AO2 T01000100
 
KBUY - Burlington, North Carolina, USA
Distance from station: NW 54mi, 86km
Updated: Wed, 26-Feb-2020 12:54am EST
Fog, Overcast
Fog, Overcast
 Wind from calm
Wind: Calm
Temperature: 46°F , 8°C
Dew Point: 45°F , 7°C
Humidity: 93%
Barometer: 29.84 inHg , 1010.5 hPa
Summary: Fog
Clouds: Overcast
Visibility: 1/4 mile , 0.4 km
Cloud details: Overcast 100 ft
2020/02/26 05:54 KBUY 260554Z AUTO 00000KT 1/4SM FG VV001 08/07 A2984 RMK AO2 SLP105 T00830072 10156 20083 58004
KTNB - Boone Watauga Ct, North Carolina, USA
Distance from station: SE 2mi, 3km
Updated: Wed, 26-Feb-2020 1:15am EST

 Wind from calm
Wind: Calm
Temperature: 45°F , 7°C
Dew Point: 45°F , 7°C
Humidity: 100%
Barometer: 29.88 inHg , 1011.9 hPa
Visibility: 10 miles , 16 km
2020/02/26 06:15 KTNB 260615Z AUTO 00000KT 10SM 07/07 A2988 RMK AO2 T00660066
 
KGEV - Jefferson, North Carolina, USA
Distance from station: NE 21mi, 33km
Updated: Wed, 26-Feb-2020 1:15am EST
Clear
Clear
 Wind from calm
Wind: Calm
Temperature: 48°F , 9°C
Dew Point: 43°F , 6°C
Humidity: 82%
Barometer: 29.87 inHg , 1011.5 hPa
Clouds: Clear
Visibility: 10 miles , 16 km
2020/02/26 06:15 KGEV 260615Z AUTO 00000KT 10SM CLR 09/06 A2987 RMK AO2 T00850055
KFQD - Rutherfordton, North Carolina, USA
Distance from station: SSW 57mi, 92km
Updated: Sun, 23-Feb-2020 5:35pm EST
NOT Current
Clear
Clear
 Wind from S
Wind: S 9 mph , 15 km/h
Temperature: 55°F , 13°C
Dew Point: 23°F , -5°C
Humidity: 28%
Barometer: 30.14 inHg , 1020.7 hPa
Clouds: Clear
Visibility: 10 miles , 16 km
2020/02/23 22:35 KFQD 232235Z AUTO 19008KT 10SM CLR 13/M05 A3014 RMK AO2
 
KAVL - Asheville, North Carolina, USA
Distance from station: SW 72mi, 117km
Updated: Wed, 26-Feb-2020 12:54am EST
Clear
Clear
 Wind from calm
Wind: Calm
Temperature: 46°F , 8°C
Dew Point: 43°F , 6°C
Humidity: 87%
Barometer: 29.88 inHg , 1011.9 hPa
Clouds: Clear
Visibility: 10 miles , 16 km
2020/02/26 05:54 KAVL 260554Z AUTO 00000KT 10SM CLR 08/06 A2988 RMK AO2 SLP107 T00830061 10133 20083 50000